Terminal Aerodrome Forecast
Issued by NWS

Home | Current Version | Previous Version | Text Only | Print | Product List | Glossary On
Versions: 1 2 3 4 5 6 7 8 9 10 11 12 13 14 15 16 17
000
FTUS46 KOTX 180531
TAFSFF
TAF
KSFF 180531Z 1806/1906 23004KT P6SM SCT120 BKN200
     FM181000 22005KT P6SM FEW012 BKN150
     FM181600 16004KT P6SM FEW017 BKN150
     FM182100 11003KT P6SM BKN250=

USA.gov is the U.S. government's official web portal to all federal, state and local government web resources and services.